Webcam Rollhalt 06

Webcam Rollhalt 24

 

Metar - Laupheim Airfield

[Source: ADDS]
METAR
ETHL 310420Z AUTO 24005KT 9000 // ////// 16/15 Q1013 /// =
TAF

Notice: Undefined index: sun in /homepages/1/d158740339/htdocs/joomla/modules/mod_wx/tmpl/default.php on line 13

Metar - Augsburg Airfield

[Source: ADDS]
METAR
EDMA 310450Z 23006KT CAVOK 17/15 Q1013 =
TAF
SR / SS: 03:53 / 18:57 UTC (Günzburg 2021-07-31)

Metar - Memmingen Airfield

[Source: ADDS]
METAR
EDJA 310350Z 23007KT CAVOK 16/15 Q1013 =
TAF

Notice: Undefined index: sun in /homepages/1/d158740339/htdocs/joomla/modules/mod_wx/tmpl/default.php on line 13

Metar - Neuburg/Donau Airfield

[Source: ADDS]
METAR
ETSN 310420Z 21001KT 9999 FEW015 SCT090 17/15 Q1012 BLU+ =
ETSN 310125Z 3102/3111 24005KT 9999 NSW FEW050 BKN250 PROB30 3102/3108 25012G22KT 5000 -SHRA SCT015 BKN030TCU BY ETGL
TAF
ETSN 310125Z 3102/3111 24005KT 9999 NSW FEW050 BKN250 PROB30 3102/3108 25012G22KT 5000 -SHRA SCT015 BKN030TCU BY ETGL =

Notice: Undefined index: sun in /homepages/1/d158740339/htdocs/joomla/modules/mod_wx/tmpl/default.php on line 13

Metar - Stuttgart Airfield

[Source: ADDS]
METAR
EDDS 310450Z VRB01KT 9999 FEW017 16/11 Q1013 NOSIG =
EDDS 302300Z 3100/3124 23003KT 9999 FEW040 BECMG 3109/3111 25008KT BECMG 3117/3119 29003KT
TAF
EDDS 302300Z 3100/3124 23003KT 9999 FEW040 BECMG 3109/3111 25008KT BECMG 3117/3119 29003KT =

Notice: Undefined index: sun in /homepages/1/d158740339/htdocs/joomla/modules/mod_wx/tmpl/default.php on line 13

Metar - Niederstetten Airfield

[Source: ADDS]
METAR
ETHN 310420Z 23006KT 9999 FEW050 14/11 Q1012 BLU+ =
TAF

Notice: Undefined index: sun in /homepages/1/d158740339/htdocs/joomla/modules/mod_wx/tmpl/default.php on line 13